Time,TemperatureF,DewpointF,PressureIn,WindDirection,WindDirectionDegrees,WindSpeedMPH,WindSpeedGustMPH,Humidity,HourlyPrecipIn,Conditions,Clouds,dailyrainin,SoftwareType,DateUTC
2013-09-01 00:03:00,-999.0,-99.9,29.92,WSW,239,2.0,8.0,-999,-99.99,,,-99.99,,2013-09-01 04:03:00,
2013-09-01 00:14:00,80.0,76.0,29.92,WSW,239,2.0,8.0,89,0.00,,,0.00,,2013-09-01 04:14:00,
2013-09-01 00:25:00,79.0,76.0,29.93,West,261,3.0,6.0,90,0.00,,,0.00,,2013-09-01 04:25:00,
2013-09-01 00:43:00,79.0,76.0,29.92,WSW,240,2.0,6.0,90,0.00,,,0.00,,2013-09-01 04:43:00,
2013-09-01 00:54:00,79.0,76.0,29.92,WSW,244,2.0,6.0,91,0.00,,,0.00,,2013-09-01 04:54:00,
2013-09-01 01:13:00,79.0,76.0,29.91,WSW,256,3.0,8.0,92,0.00,,,0.00,,2013-09-01 05:13:00,
2013-09-01 01:23:00,79.0,76.0,29.91,WSW,244,3.0,8.0,92,0.00,,,0.00,,2013-09-01 05:23:00,
2013-09-01 01:43:00,79.0,76.0,29.91,WSW,257,5.0,10.0,92,0.00,,,0.00,,2013-09-01 05:43:00,
2013-09-01 01:52:00,79.0,76.0,29.91,WSW,250,4.0,12.0,92,0.00,,,0.00,,2013-09-01 05:52:00,
2013-09-01 02:13:00,79.0,76.0,29.91,West,267,8.0,12.0,92,0.00,,,0.00,,2013-09-01 06:13:00,
2013-09-01 02:22:00,79.0,76.0,29.91,WSW,242,4.0,10.0,92,0.00,,,0.00,,2013-09-01 06:22:00,
2013-09-01 02:42:00,79.0,76.0,29.91,WSW,243,5.0,12.0,92,0.00,,,0.00,,2013-09-01 06:42:00,
2013-09-01 02:52:00,79.0,76.0,29.91,WNW,293,5.0,12.0,92,0.00,,,0.00,,2013-09-01 06:52:00,
2013-09-01 03:13:00,79.0,76.0,29.90,West,270,7.0,14.0,92,0.00,,,0.00,,2013-09-01 07:13:00,
2013-09-01 03:22:00,79.0,76.0,29.90,WSW,250,5.0,12.0,92,0.00,,,0.00,,2013-09-01 07:22:00,
2013-09-01 03:42:00,79.0,76.0,29.90,West,275,5.0,9.0,92,0.00,,,0.00,,2013-09-01 07:42:00,
2013-09-01 03:52:00,78.0,75.0,29.90,WNW,287,3.0,6.0,92,0.00,,,0.00,,2013-09-01 07:52:00,
2013-09-01 04:11:00,78.0,76.0,29.89,West,280,3.0,9.0,93,0.00,,,0.00,,2013-09-01 08:11:00,
2013-09-01 04:22:00,78.0,75.0,29.89,West,259,3.0,8.0,92,0.00,,,0.00,,2013-09-01 08:22:00,
2013-09-01 04:43:00,78.0,75.0,29.89,West,263,4.0,8.0,92,0.00,,,0.00,,2013-09-01 08:43:00,
2013-09-01 04:52:00,78.0,75.0,29.89,West,260,3.0,8.0,92,0.00,,,0.00,,2013-09-01 08:52:00,
2013-09-01 05:11:00,78.0,75.0,29.89,WNW,293,5.0,9.0,92,0.00,,,0.00,,2013-09-01 09:11:00,
2013-09-01 05:22:00,78.0,76.0,29.89,West,272,4.0,9.0,93,0.00,,,0.00,,2013-09-01 09:22:00,
2013-09-01 05:53:00,78.0,76.0,29.89,West,261,4.0,11.0,93,0.00,,,0.00,,2013-09-01 09:53:00,
2013-09-01 06:12:00,78.0,76.0,29.89,West,261,3.0,9.0,93,0.00,,,0.00,,2013-09-01 10:12:00,
2013-09-01 06:23:00,78.0,76.0,29.89,WNW,282,5.0,9.0,93,0.00,,,0.00,,2013-09-01 10:23:00,
2013-09-01 06:42:00,78.0,76.0,29.90,WNW,287,5.0,10.0,93,0.00,,,0.00,,2013-09-01 10:42:00,
2013-09-01 06:53:00,78.0,76.0,29.90,WNW,283,4.0,9.0,94,0.00,,,0.00,,2013-09-01 10:53:00,
2013-09-01 07:12:00,78.0,76.0,29.90,West,265,4.0,9.0,94,0.00,,,0.00,,2013-09-01 11:12:00,
2013-09-01 07:22:00,78.0,76.0,29.91,West,267,6.0,11.0,94,0.00,,,0.00,,2013-09-01 11:22:00,
2013-09-01 07:52:00,78.0,76.0,29.91,WNW,297,7.0,12.0,93,0.00,,,0.00,,2013-09-01 11:52:00,
2013-09-01 08:12:00,78.0,76.0,29.92,NW,311,5.0,11.0,93,0.00,,,0.00,,2013-09-01 12:12:00,
2013-09-01 08:22:00,78.0,76.0,29.91,West,271,6.0,9.0,93,0.00,,,0.00,,2013-09-01 12:22:00,
2013-09-01 08:42:00,78.0,75.0,29.92,West,265,6.0,10.0,92,0.00,,,0.00,,2013-09-01 12:42:00,
2013-09-01 08:52:00,79.0,76.0,29.92,West,271,4.0,10.0,92,0.00,,,0.00,,2013-09-01 12:52:00,
2013-09-01 09:11:00,80.0,77.0,29.93,West,268,5.0,11.0,91,0.00,,,0.00,,2013-09-01 13:11:00,
2013-09-01 09:21:00,80.0,77.0,29.93,West,267,7.0,12.0,91,0.00,,,0.00,,2013-09-01 13:21:00,
2013-09-01 09:52:00,81.0,78.0,29.94,WSW,250,7.0,13.0,90,0.00,,,0.00,,2013-09-01 13:52:00,
2013-09-01 10:11:00,81.0,77.0,29.94,West,272,7.0,14.0,89,0.00,,,0.00,,2013-09-01 14:11:00,
2013-09-01 10:22:00,81.0,77.0,29.94,West,269,6.0,12.0,87,0.00,,,0.00,,2013-09-01 14:22:00,
2013-09-01 10:42:00,82.0,77.0,29.94,West,275,6.0,11.0,86,0.00,,,0.00,,2013-09-01 14:42:00,
2013-09-01 10:52:00,82.0,77.0,29.94,WSW,248,6.0,11.0,84,0.00,,,0.00,,2013-09-01 14:52:00,
2013-09-01 11:11:00,82.0,77.0,29.94,WSW,246,6.0,11.0,85,0.00,,,0.00,,2013-09-01 15:11:00,
2013-09-01 11:23:00,83.0,78.0,29.94,WSW,238,3.0,8.0,85,0.00,,,0.00,,2013-09-01 15:23:00,
2013-09-01 11:45:00,83.0,78.0,29.93,SW,232,4.0,9.0,84,0.00,,,0.00,,2013-09-01 15:45:00,
2013-09-01 11:55:00,83.0,78.0,29.93,WSW,241,5.0,9.0,85,0.00,,,0.00,,2013-09-01 15:55:00,
2013-09-01 12:14:00,82.0,78.0,29.93,SW,225,8.0,14.0,87,0.00,,,0.00,,2013-09-01 16:14:00,
2013-09-01 12:24:00,82.0,78.0,29.92,SW,232,8.0,15.0,87,0.00,,,0.00,,2013-09-01 16:24:00,
2013-09-01 12:43:00,82.0,78.0,29.92,SSW,200,8.0,15.0,88,0.00,,,0.00,,2013-09-01 16:43:00,
2013-09-01 12:53:00,82.0,78.0,29.92,SSW,199,9.0,17.0,88,0.00,,,0.00,,2013-09-01 16:53:00,
2013-09-01 13:23:00,82.0,78.0,29.92,SW,215,12.0,19.0,87,0.00,,,0.00,,2013-09-01 17:23:00,
2013-09-01 13:42:00,82.0,78.0,29.91,SW,220,10.0,19.0,88,0.00,,,0.00,,2013-09-01 17:42:00,
2013-09-01 13:52:00,82.0,78.0,29.91,SW,226,6.0,15.0,87,0.00,,,0.00,,2013-09-01 17:52:00,
2013-09-01 14:13:00,83.0,79.0,29.90,WSW,242,8.0,16.0,87,0.00,,,0.00,,2013-09-01 18:13:00,
2013-09-01 14:22:00,82.0,78.0,29.90,SSW,208,9.0,18.0,87,0.00,,,0.00,,2013-09-01 18:22:00,
2013-09-01 14:42:00,83.0,78.0,29.89,SW,232,8.0,15.0,86,0.00,,,0.00,,2013-09-01 18:42:00,
2013-09-01 14:52:00,82.0,78.0,29.88,SSW,207,11.0,17.0,87,0.00,,,0.00,,2013-09-01 18:52:00,
2013-09-01 15:12:00,82.0,78.0,29.88,South,178,14.0,23.0,89,0.00,,,0.00,,2013-09-01 19:12:00,
2013-09-01 15:22:00,82.0,78.0,29.87,SW,215,12.0,21.0,89,0.00,,,0.00,,2013-09-01 19:22:00,
2013-09-01 16:12:00,82.0,78.0,29.86,SSW,203,13.0,24.0,89,0.00,,,0.00,,2013-09-01 20:12:00,
2013-09-01 16:22:00,82.0,78.0,29.85,WSW,241,13.0,23.0,89,0.00,,,0.00,,2013-09-01 20:22:00,
2013-09-01 16:52:00,82.0,78.0,29.85,WSW,244,9.0,22.0,89,0.00,,,0.00,,2013-09-01 20:52:00,
2013-09-01 17:11:00,82.0,78.0,29.85,SW,217,10.0,19.0,88,0.00,,,0.00,,2013-09-01 21:11:00,
2013-09-01 17:22:00,82.0,78.0,29.85,SSW,212,6.0,16.0,88,0.00,,,0.00,,2013-09-01 21:22:00,
2013-09-01 17:44:00,82.0,78.0,29.84,SW,229,8.0,18.0,88,0.00,,,0.00,,2013-09-01 21:44:00,
2013-09-01 17:55:00,82.0,78.0,29.84,SSW,212,8.0,17.0,88,0.00,,,0.00,,2013-09-01 21:55:00,
2013-09-01 18:15:00,82.0,78.0,29.84,SSW,207,7.0,15.0,89,0.00,,,0.00,,2013-09-01 22:15:00,
2013-09-01 18:24:00,82.0,78.0,29.85,SW,223,8.0,17.0,89,0.00,,,0.00,,2013-09-01 22:24:00,
2013-09-01 18:53:00,82.0,78.0,29.85,WSW,246,7.0,15.0,88,0.00,,,0.00,,2013-09-01 22:53:00,
2013-09-01 19:12:00,81.0,77.0,29.84,West,275,8.0,18.0,88,0.00,,,0.00,,2013-09-01 23:12:00,
2013-09-01 19:23:00,81.0,77.0,29.84,SW,232,9.0,14.0,89,0.00,,,0.00,,2013-09-01 23:23:00,
2013-09-01 19:42:00,81.0,77.0,29.85,WSW,249,9.0,20.0,89,0.00,,,0.00,,2013-09-01 23:42:00,
2013-09-01 19:53:00,81.0,78.0,29.85,SW,234,8.0,15.0,90,0.00,,,0.00,,2013-09-01 23:53:00,
2013-09-01 20:11:00,81.0,78.0,29.86,WNW,284,6.0,19.0,91,0.00,,,0.00,,2013-09-02 00:11:00,
2013-09-01 20:22:00,80.0,77.0,29.87,West,262,7.0,16.0,91,0.00,,,0.00,,2013-09-02 00:22:00,
2013-09-01 20:42:00,80.0,76.0,29.87,West,265,8.0,18.0,89,0.00,,,0.00,,2013-09-02 00:42:00,
2013-09-01 20:52:00,80.0,77.0,29.87,WSW,251,9.0,16.0,90,0.00,,,0.00,,2013-09-02 00:52:00,
2013-09-01 21:12:00,80.0,77.0,29.88,WSW,237,6.0,15.0,90,0.00,,,0.00,,2013-09-02 01:12:00,
2013-09-01 21:22:00,80.0,77.0,29.88,South,188,7.0,18.0,91,0.00,,,0.00,,2013-09-02 01:22:00,
2013-09-01 21:42:00,80.0,77.0,29.88,SW,231,6.0,14.0,92,0.00,,,0.00,,2013-09-02 01:42:00,
2013-09-01 21:52:00,80.0,77.0,29.89,WSW,248,5.0,15.0,92,0.00,,,0.00,,2013-09-02 01:52:00,
2013-09-01 22:12:00,80.0,77.0,29.89,SW,217,7.0,16.0,92,0.00,,,0.00,,2013-09-02 02:12:00,
2013-09-01 22:22:00,80.0,77.0,29.88,West,267,7.0,16.0,92,0.00,,,0.00,,2013-09-02 02:22:00,
2013-09-01 22:42:00,80.0,77.0,29.89,WSW,251,6.0,14.0,92,0.00,,,0.00,,2013-09-02 02:42:00,
2013-09-01 22:52:00,80.0,77.0,29.89,WSW,241,8.0,20.0,92,0.00,,,0.00,,2013-09-02 02:52:00,
2013-09-01 23:11:00,80.0,77.0,29.90,West,273,9.0,16.0,92,0.00,,,0.00,,2013-09-02 03:11:00,
2013-09-01 23:22:00,80.0,77.0,29.90,West,261,11.0,19.0,92,0.00,,,0.00,,2013-09-02 03:22:00,
2013-09-01 23:44:00,80.0,77.0,29.90,WSW,245,10.0,16.0,92,0.00,,,0.00,,2013-09-02 03:44:00,
2013-09-01 23:56:00,80.0,77.0,29.90,WSW,240,11.0,18.0,92,0.00,,,0.00,,2013-09-02 03:56:00,